createdAt,value
2017-03-15T00:00:38.549Z,28.52
2017-03-15T00:01:38.660Z,28.17
2017-03-15T00:02:39.148Z,29.20
2017-03-15T00:03:39.697Z,27.88
2017-03-15T00:04:40.404Z,29.52
2017-03-15T00:05:42.015Z,29.52
2017-03-15T00:06:45.352Z,28.98
2017-03-15T00:07:46.468Z,29.82
2017-03-15T00:08:48.732Z,29.80
2017-03-15T00:09:48.147Z,28.88
2017-03-15T00:10:47.362Z,27.47
2017-03-15T00:11:47.581Z,27.73
2017-03-15T00:12:46.692Z,27.30
2017-03-15T00:13:46.577Z,27.08
2017-03-15T00:14:46.220Z,28.82
2017-03-15T00:15:45.785Z,27.77
2017-03-15T00:16:48.580Z,28.47
2017-03-15T00:17:48.201Z,26.80
2017-03-15T00:18:49.772Z,29.75
2017-03-15T00:19:49.952Z,29.13
2017-03-15T00:20:49.910Z,27.63
2017-03-15T00:21:50.559Z,29.48
2017-03-15T00:22:50.145Z,30.30
2017-03-15T00:23:49.428Z,29.63
2017-03-15T00:24:48.754Z,28.65
2017-03-15T00:25:48.624Z,28.65
2017-03-15T00:26:48.471Z,27.50
2017-03-15T00:27:48.180Z,28.92
2017-03-15T00:28:49.095Z,28.88
2017-03-15T00:29:49.119Z,27.55
2017-03-15T00:30:51.717Z,29.30
2017-03-15T00:31:50.673Z,27.72
2017-03-15T00:32:50.300Z,29.10
2017-03-15T00:33:50.012Z,27.10
2017-03-15T00:34:50.205Z,27.75
2017-03-15T00:35:51.864Z,26.85
2017-03-15T00:36:52.239Z,27.58
2017-03-15T00:37:52.354Z,29.02
2017-03-15T00:38:51.873Z,27.62
2017-03-15T00:39:52.208Z,26.30
2017-03-15T00:40:52.062Z,28.22
2017-03-15T00:41:53.519Z,27.42
2017-03-15T00:42:54.602Z,28.97
2017-03-15T00:43:53.864Z,29.50
2017-03-15T00:44:55.232Z,27.98
2017-03-15T00:45:54.800Z,28.05
2017-03-15T00:46:54.683Z,28.03
2017-03-15T00:47:54.358Z,29.32
2017-03-15T00:48:54.548Z,29.95
2017-03-15T00:49:54.652Z,29.72
2017-03-15T00:50:55.294Z,28.67
2017-03-15T00:51:56.536Z,30.22
2017-03-15T00:52:55.765Z,29.07
2017-03-15T00:53:55.304Z,28.97
2017-03-15T00:54:56.261Z,28.07
2017-03-15T00:55:56.182Z,30.23
2017-03-15T00:56:57.282Z,29.70
2017-03-15T00:57:56.771Z,30.48
2017-03-15T00:58:57.107Z,27.90
2017-03-15T00:59:57.011Z,29.22
2017-03-15T01:00:57.220Z,28.55
2017-03-15T01:01:58.048Z,29.27
2017-03-15T01:03:00.297Z,28.93
2017-03-15T01:04:00.980Z,29.05
2017-03-15T01:05:01.051Z,31.12
2017-03-15T01:06:00.542Z,28.97
2017-03-15T01:07:00.540Z,27.97
2017-03-15T01:07:59.317Z,28.37
2017-03-15T01:09:00.765Z,29.52
2017-03-15T01:10:01.142Z,29.83
2017-03-15T01:11:01.984Z,29.55
2017-03-15T01:12:04.158Z,30.42
2017-03-15T01:13:03.764Z,29.83
2017-03-15T01:14:03.538Z,28.48
2017-03-15T01:15:02.805Z,29.33
2017-03-15T01:16:04.940Z,29.77
2017-03-15T01:17:04.756Z,29.00
2017-03-15T01:18:08.713Z,29.82
2017-03-15T01:19:08.301Z,29.35
2017-03-15T01:20:07.837Z,30.35
2017-03-15T01:21:09.644Z,30.60
2017-03-15T01:22:10.478Z,29.80
2017-03-15T01:23:10.127Z,28.10
2017-03-15T01:24:10.385Z,30.13
2017-03-15T01:25:09.985Z,28.52
2017-03-15T01:26:09.616Z,30.47
2017-03-15T01:27:10.480Z,30.37
2017-03-15T01:28:10.725Z,30.33
2017-03-15T01:29:10.605Z,30.53
2017-03-15T01:30:11.200Z,30.65
2017-03-15T01:31:11.919Z,29.90
2017-03-15T01:32:13.352Z,28.72
2017-03-15T01:33:13.147Z,29.87
2017-03-15T01:34:13.634Z,29.87
2017-03-15T01:35:14.169Z,29.03
2017-03-15T01:36:14.561Z,29.57
2017-03-15T01:37:13.939Z,29.57
2017-03-15T01:38:13.101Z,31.75
2017-03-15T01:39:13.529Z,29.75
2017-03-15T01:40:14.352Z,30.63
2017-03-15T01:41:14.391Z,29.02
2017-03-15T01:42:18.021Z,30.17
2017-03-15T01:43:18.380Z,29.50
2017-03-15T01:44:18.097Z,31.75
2017-03-15T01:45:19.084Z,30.52
2017-03-15T01:46:18.591Z,30.88
2017-03-15T01:47:21.924Z,30.73
2017-03-15T01:48:22.949Z,29.58
2017-03-15T01:49:22.709Z,30.53
2017-03-15T01:50:21.924Z,32.37
2017-03-15T01:51:21.361Z,30.53
2017-03-15T01:52:22.988Z,30.43
2017-03-15T01:53:23.475Z,29.67
2017-03-15T01:54:23.340Z,31.30
2017-03-15T01:55:23.131Z,29.00
2017-03-15T01:56:23.140Z,29.88
2017-03-15T01:57:25.070Z,31.07
2017-03-15T01:58:25.708Z,29.97
2017-03-15T01:59:25.597Z,30.80
2017-03-15T02:00:25.955Z,33.32
2017-03-15T02:01:25.695Z,27.35
2017-03-15T02:02:28.433Z,28.20
2017-03-15T02:03:28.216Z,27.80
2017-03-15T02:04:28.403Z,31.12
2017-03-15T02:05:28.433Z,30.92
2017-03-15T02:06:28.183Z,29.83
2017-03-15T02:07:28.008Z,29.07
2017-03-15T02:08:28.403Z,30.42
2017-03-15T02:09:27.910Z,30.60
2017-03-15T02:10:29.102Z,28.65
2017-03-15T02:11:28.605Z,30.65
2017-03-15T02:12:30.409Z,32.73
2017-03-15T02:13:31.651Z,30.65
2017-03-15T02:14:30.605Z,30.33
2017-03-15T02:15:30.488Z,31.88
2017-03-15T02:16:31.716Z,29.42
2017-03-15T02:17:31.849Z,31.43
2017-03-15T02:18:31.167Z,30.78
2017-03-15T02:19:31.064Z,32.33
2017-03-15T02:20:31.044Z,31.75
2017-03-15T02:21:31.196Z,32.37
2017-03-15T02:22:30.198Z,30.80
2017-03-15T02:23:30.348Z,31.42
2017-03-15T02:24:29.753Z,30.95
2017-03-15T02:25:29.129Z,31.70
2017-03-15T02:26:30.348Z,31.68
2017-03-15T02:27:30.068Z,30.30
2017-03-15T02:28:29.910Z,29.03
2017-03-15T02:29:30.772Z,31.03
2017-03-15T02:30:32.388Z,29.45
2017-03-15T02:31:32.207Z,28.42
2017-03-15T02:32:32.527Z,30.20
2017-03-15T02:33:32.508Z,29.98
2017-03-15T02:34:32.631Z,30.08
2017-03-15T02:35:32.295Z,29.42
2017-03-15T02:36:32.326Z,31.42
2017-03-15T02:37:32.380Z,28.90
2017-03-15T02:38:32.507Z,31.57
2017-03-15T02:39:32.041Z,31.82
2017-03-15T02:40:33.240Z,30.53
2017-03-15T02:41:32.728Z,30.28
2017-03-15T02:42:33.304Z,29.85
2017-03-15T02:43:33.197Z,30.97
2017-03-15T02:44:33.824Z,31.50
2017-03-15T02:45:33.552Z,29.27
2017-03-15T02:46:34.011Z,30.35
2017-03-15T02:47:34.060Z,31.87
2017-03-15T02:48:36.826Z,32.38
2017-03-15T02:49:36.283Z,34.52
2017-03-15T02:50:36.063Z,34.20
2017-03-15T02:51:35.864Z,33.73
2017-03-15T02:52:36.444Z,32.57
2017-03-15T02:53:38.168Z,30.85
2017-03-15T02:54:41.495Z,32.13
2017-03-15T02:55:41.580Z,33.20
2017-03-15T02:56:40.761Z,31.05
2017-03-15T02:57:40.883Z,31.33
2017-03-15T02:58:41.755Z,31.48
2017-03-15T02:59:44.705Z,31.93
2017-03-15T03:00:45.408Z,33.02
2017-03-15T03:01:46.220Z,31.73
2017-03-15T03:02:46.464Z,32.15
2017-03-15T03:03:48.523Z,33.57
2017-03-15T03:04:48.352Z,32.90
2017-03-15T03:05:48.794Z,33.78
2017-03-15T03:06:50.575Z,34.82
2017-03-15T03:07:51.288Z,31.55
2017-03-15T03:08:52.013Z,33.52
2017-03-15T03:09:53.091Z,32.32
2017-03-15T03:10:53.723Z,33.95
2017-03-15T03:11:54.862Z,33.08
2017-03-15T03:12:56.439Z,34.85
2017-03-15T03:13:57.385Z,34.92
2017-03-15T03:14:58.009Z,34.25
2017-03-15T03:15:59.750Z,32.13
2017-03-15T03:17:00.607Z,31.40
2017-03-15T03:18:00.665Z,33.10
2017-03-15T03:19:00.771Z,32.15
2017-03-15T03:19:59.684Z,32.43
2017-03-15T03:20:59.974Z,30.90
2017-03-15T03:21:59.433Z,33.00
2017-03-15T03:23:00.300Z,32.35
2017-03-15T03:23:59.915Z,32.65
2017-03-15T03:24:59.298Z,32.55
2017-03-15T03:25:59.306Z,33.47
2017-03-15T03:26:58.717Z,33.52
2017-03-15T03:27:58.105Z,33.20
2017-03-15T03:28:57.816Z,33.12
2017-03-15T03:29:58.555Z,33.38
2017-03-15T03:31:01.284Z,31.07
2017-03-15T03:32:01.136Z,33.82
2017-03-15T03:33:00.347Z,34.32
2017-03-15T03:33:59.956Z,35.83
2017-03-15T03:34:59.060Z,34.40
2017-03-15T03:35:59.101Z,34.22
2017-03-15T03:36:58.817Z,33.33
2017-03-15T03:37:59.536Z,34.88
2017-03-15T03:38:59.125Z,33.17
2017-03-15T03:39:58.920Z,32.40
2017-03-15T03:40:59.315Z,34.93
2017-03-15T03:42:00.933Z,31.97
2017-03-15T03:43:03.345Z,31.50
2017-03-15T03:44:04.343Z,33.62
2017-03-15T03:45:04.320Z,33.75
2017-03-15T03:46:05.300Z,35.65
2017-03-15T03:47:05.405Z,32.38
2017-03-15T03:48:05.364Z,35.38
2017-03-15T03:49:05.234Z,33.15
2017-03-15T03:50:06.442Z,32.45
2017-03-15T03:51:06.909Z,33.90
2017-03-15T03:52:06.445Z,31.28
2017-03-15T03:53:07.274Z,31.48
2017-03-15T03:54:08.544Z,32.40
2017-03-15T03:55:07.921Z,32.97
2017-03-15T03:56:07.224Z,31.72
2017-03-15T03:57:06.572Z,31.23
2017-03-15T03:58:09.023Z,32.67
2017-03-15T03:59:09.357Z,31.75
2017-03-15T04:00:08.548Z,33.97
2017-03-15T04:01:09.163Z,34.22
2017-03-15T04:02:09.308Z,33.07
2017-03-15T04:03:10.071Z,33.13
2017-03-15T04:04:09.688Z,36.77
2017-03-15T04:05:09.847Z,34.65
2017-03-15T04:06:10.420Z,35.48
2017-03-15T04:07:09.920Z,35.67
2017-03-15T04:08:09.838Z,39.58
2017-03-15T04:09:09.423Z,37.82
2017-03-15T04:10:08.489Z,35.90
2017-03-15T04:11:08.419Z,35.40
2017-03-15T04:12:07.769Z,36.10
2017-03-15T04:13:08.671Z,37.20
2017-03-15T04:14:11.348Z,35.63
2017-03-15T04:15:14.497Z,37.25
2017-03-15T04:16:16.380Z,38.42
2017-03-15T04:17:16.492Z,37.30
2017-03-15T04:18:16.935Z,36.02
2017-03-15T04:19:16.450Z,38.72
2017-03-15T04:20:15.907Z,36.87
2017-03-15T04:21:15.972Z,37.08
2017-03-15T04:22:19.288Z,38.13
2017-03-15T04:23:20.356Z,38.87
2017-03-15T04:24:20.224Z,38.43
2017-03-15T04:25:19.460Z,36.37
2017-03-15T04:26:19.204Z,38.30
2017-03-15T04:27:19.676Z,38.98
2017-03-15T04:28:19.969Z,37.07
2017-03-15T04:29:19.667Z,42.02
2017-03-15T04:30:19.560Z,39.23
2017-03-15T04:31:19.411Z,40.38
2017-03-15T04:32:19.331Z,37.67
2017-03-15T04:33:18.804Z,37.98
2017-03-15T04:34:18.511Z,39.57
2017-03-15T04:35:18.264Z,39.95
2017-03-15T04:36:19.160Z,39.78
2017-03-15T04:37:18.672Z,38.73
2017-03-15T04:38:17.757Z,37.63
2017-03-15T04:39:17.880Z,38.00
2017-03-15T04:40:17.840Z,40.78
2017-03-15T04:41:18.326Z,39.28
2017-03-15T04:42:21.432Z,37.30
2017-03-15T04:43:21.712Z,36.57
2017-03-15T04:44:22.279Z,39.70
2017-03-15T04:45:23.421Z,36.83
2017-03-15T04:46:23.702Z,38.77
2017-03-15T04:47:23.925Z,37.23
2017-03-15T04:48:23.441Z,37.90
2017-03-15T04:49:22.773Z,37.63
2017-03-15T04:50:22.717Z,40.05
2017-03-15T04:51:22.769Z,40.02
2017-03-15T04:52:22.487Z,37.98
2017-03-15T04:53:21.505Z,37.25
2017-03-15T04:54:21.137Z,38.82
2017-03-15T04:55:23.236Z,38.22
2017-03-15T04:56:22.906Z,40.48
2017-03-15T04:57:23.949Z,37.90
2017-03-15T04:58:23.560Z,35.97
2017-03-15T04:59:23.005Z,37.68
2017-03-15T05:00:22.891Z,37.18
2017-03-15T05:01:22.985Z,37.40
2017-03-15T05:02:23.800Z,36.97
2017-03-15T05:03:22.976Z,38.78
2017-03-15T05:04:24.641Z,34.88
2017-03-15T05:05:24.539Z,34.37
2017-03-15T05:06:25.135Z,35.50
2017-03-15T05:07:24.585Z,36.55
2017-03-15T05:08:23.920Z,34.20
2017-03-15T05:09:24.461Z,34.90
2017-03-15T05:10:24.544Z,35.65
2017-03-15T05:11:26.124Z,33.73
2017-03-15T05:12:27.173Z,35.53
2017-03-15T05:13:26.848Z,33.60
2017-03-15T05:14:27.024Z,33.83
2017-03-15T05:15:26.932Z,35.57
2017-03-15T05:16:26.852Z,34.65
2017-03-15T05:17:26.764Z,34.40
2017-03-15T05:18:26.283Z,33.45
2017-03-15T05:19:26.680Z,34.53
2017-03-15T05:20:26.276Z,33.95
2017-03-15T05:21:26.682Z,33.08
2017-03-15T05:22:26.586Z,34.92
2017-03-15T05:23:27.312Z,33.53
2017-03-15T05:24:27.291Z,34.70
2017-03-15T05:25:30.712Z,34.27
2017-03-15T05:26:30.810Z,32.27
2017-03-15T05:27:30.768Z,34.12
2017-03-15T05:28:31.113Z,34.32
2017-03-15T05:29:31.405Z,32.33
2017-03-15T05:30:31.620Z,34.15
2017-03-15T05:31:31.240Z,32.98
2017-03-15T05:32:32.600Z,33.78
2017-03-15T05:33:32.183Z,33.85
2017-03-15T05:34:35.120Z,31.23
2017-03-15T05:35:34.367Z,33.27
2017-03-15T05:36:34.050Z,32.33
2017-03-15T05:37:34.064Z,32.60
2017-03-15T05:38:33.827Z,32.75
2017-03-15T05:39:34.184Z,36.10
2017-03-15T05:40:37.533Z,33.38
2017-03-15T05:41:37.631Z,32.88
2017-03-15T05:42:42.095Z,33.85
2017-03-15T05:43:47.116Z,32.83
2017-03-15T05:44:47.173Z,32.02
2017-03-15T05:45:48.339Z,34.98
2017-03-15T05:46:51.304Z,33.77
2017-03-15T05:47:52.987Z,32.12
2017-03-15T05:48:53.135Z,33.82
2017-03-15T05:49:53.289Z,33.72
2017-03-15T05:50:55.056Z,35.17
2017-03-15T05:51:55.088Z,31.55
2017-03-15T05:52:54.780Z,36.00
2017-03-15T05:53:56.109Z,32.98
2017-03-15T05:54:55.919Z,32.90
2017-03-15T05:55:55.503Z,32.27
2017-03-15T05:56:57.112Z,31.97
2017-03-15T05:57:59.165Z,31.55
2017-03-15T05:59:00.787Z,33.02
2017-03-15T06:00:02.107Z,30.60
2017-03-15T06:01:03.120Z,31.07
2017-03-15T06:02:04.807Z,32.95
2017-03-15T06:03:04.565Z,29.52
2017-03-15T06:04:07.696Z,32.28
2017-03-15T06:05:11.649Z,29.70
2017-03-15T06:06:13.084Z,30.40
2017-03-15T06:07:14.016Z,31.20
2017-03-15T06:08:13.711Z,32.38
2017-03-15T06:09:14.948Z,30.30
2017-03-15T06:10:17.171Z,30.08
2017-03-15T06:11:18.500Z,30.68
2017-03-15T06:12:19.481Z,29.80
2017-03-15T06:13:20.103Z,30.57
2017-03-15T06:14:19.611Z,29.05
2017-03-15T06:15:19.653Z,30.73
2017-03-15T06:16:21.145Z,31.48
2017-03-15T06:17:23.097Z,29.35
2017-03-15T06:18:23.292Z,30.33
2017-03-15T06:19:23.689Z,32.02
2017-03-15T06:20:24.238Z,32.93
2017-03-15T06:21:24.663Z,29.25
2017-03-15T06:22:24.907Z,30.12
2017-03-15T06:23:26.268Z,30.82
2017-03-15T06:24:31.022Z,28.55
2017-03-15T06:25:34.339Z,28.95
2017-03-15T06:26:36.185Z,30.58
2017-03-15T06:27:37.539Z,30.90
2017-03-15T06:28:38.840Z,30.12
2017-03-15T06:29:38.992Z,28.70
2017-03-15T06:30:41.632Z,29.27
2017-03-15T06:31:42.963Z,29.08
2017-03-15T06:32:43.997Z,28.77
2017-03-15T06:33:47.290Z,29.28
2017-03-15T06:34:50.316Z,31.85
2017-03-15T06:35:50.693Z,29.12
2017-03-15T06:36:54.168Z,29.80
2017-03-15T06:37:56.775Z,30.33
2017-03-15T06:38:57.072Z,29.40
2017-03-15T06:39:57.512Z,30.15
2017-03-15T06:40:57.834Z,31.13
2017-03-15T06:41:58.321Z,31.28
2017-03-15T06:43:01.404Z,34.57
2017-03-15T06:44:02.397Z,30.95
2017-03-15T06:45:03.233Z,32.78
2017-03-15T06:46:04.315Z,34.98
2017-03-15T06:47:05.403Z,33.22
2017-03-15T06:48:05.384Z,32.78
2017-03-15T06:49:06.435Z,32.42
2017-03-15T06:50:06.093Z,32.65
2017-03-15T06:51:06.737Z,34.45
2017-03-15T06:52:07.376Z,32.53
2017-03-15T06:53:08.729Z,33.80
2017-03-15T06:54:09.404Z,34.07
2017-03-15T06:55:11.810Z,33.75
2017-03-15T06:56:13.855Z,31.78
2017-03-15T06:57:13.670Z,33.68
2017-03-15T06:58:16.548Z,33.45
2017-03-15T06:59:16.652Z,35.10
2017-03-15T07:00:17.499Z,33.97
2017-03-15T07:01:18.613Z,34.12
2017-03-15T07:02:20.565Z,36.77
2017-03-15T07:03:23.371Z,35.23
2017-03-15T07:04:22.980Z,34.80
2017-03-15T07:05:25.841Z,36.38
2017-03-15T07:06:26.364Z,33.55
2017-03-15T07:07:27.243Z,34.45
2017-03-15T07:08:27.442Z,34.80
2017-03-15T07:09:28.119Z,35.60
2017-03-15T07:10:27.583Z,34.38
2017-03-15T07:11:28.059Z,33.70
2017-03-15T07:12:30.134Z,33.53
2017-03-15T07:13:31.956Z,33.13
2017-03-15T07:14:33.120Z,35.10
2017-03-15T07:15:35.043Z,34.70
2017-03-15T07:16:38.507Z,35.72
2017-03-15T07:17:40.657Z,37.42
2017-03-15T07:18:42.600Z,35.50
2017-03-15T07:19:45.348Z,34.95
2017-03-15T07:20:44.578Z,33.02
2017-03-15T07:21:44.459Z,31.98
2017-03-15T07:22:44.113Z,34.48
2017-03-15T07:23:45.100Z,35.00
2017-03-15T07:24:47.465Z,33.88
2017-03-15T07:25:48.088Z,34.73
2017-03-15T07:26:47.379Z,35.65
2017-03-15T07:27:47.579Z,31.97
2017-03-15T07:28:47.611Z,33.13
2017-03-15T07:29:46.864Z,33.28
2017-03-15T07:30:47.196Z,32.60
2017-03-15T07:31:47.121Z,32.17
2017-03-15T07:32:47.525Z,35.45
2017-03-15T07:33:47.578Z,35.22
2017-03-15T07:34:48.969Z,34.28
2017-03-15T07:35:49.890Z,33.00
2017-03-15T07:36:50.393Z,34.12
2017-03-15T07:37:50.548Z,34.02
2017-03-15T07:38:51.759Z,33.68
2017-03-15T07:39:51.636Z,35.73
2017-03-15T07:40:53.665Z,34.70
2017-03-15T07:41:55.657Z,32.48
2017-03-15T07:42:59.598Z,32.38
2017-03-15T07:43:59.904Z,33.23
2017-03-15T07:45:04.668Z,31.85
2017-03-15T07:46:07.056Z,31.78
2017-03-15T07:47:06.669Z,30.27
2017-03-15T07:48:07.389Z,31.00
2017-03-15T07:49:07.592Z,30.52
2017-03-15T07:50:06.380Z,31.80
2017-03-15T07:51:07.487Z,28.37
2017-03-15T07:52:09.573Z,29.03
2017-03-15T07:53:15.900Z,22.55
2017-03-15T07:54:20.753Z,20.43
2017-03-15T07:55:22.016Z,21.40
2017-03-15T07:56:25.009Z,19.12
2017-03-15T07:57:27.571Z,18.40
2017-03-15T07:58:27.384Z,19.82
2017-03-15T07:59:28.332Z,19.47
2017-03-15T08:00:30.717Z,21.12
2017-03-15T08:01:33.501Z,22.07
2017-03-15T08:02:46.781Z,21.23
2017-03-15T08:03:48.664Z,21.53
2017-03-15T08:04:48.563Z,21.62
2017-03-15T08:05:52.443Z,19.75
2017-03-15T08:06:54.473Z,21.43
2017-03-15T08:07:55.316Z,21.50
2017-03-15T08:08:55.096Z,21.10
2017-03-15T08:09:56.724Z,23.83
2017-03-15T08:10:56.736Z,21.63
2017-03-15T08:11:57.560Z,21.50
2017-03-15T08:12:59.266Z,21.13
2017-03-15T08:14:00.869Z,21.87
2017-03-15T08:15:01.635Z,23.03
2017-03-15T08:16:03.055Z,21.73
2017-03-15T08:17:04.680Z,23.37
2017-03-15T08:18:06.740Z,23.73
2017-03-15T08:19:08.492Z,20.72
2017-03-15T08:20:08.817Z,21.13
2017-03-15T08:21:14.885Z,24.05
2017-03-15T08:22:15.376Z,20.63
2017-03-15T08:23:17.781Z,23.52
2017-03-15T08:24:20.664Z,21.35
2017-03-15T08:25:22.989Z,23.23
2017-03-15T08:26:23.209Z,23.38
2017-03-15T08:27:25.087Z,25.07
2017-03-15T08:28:27.628Z,23.35
2017-03-15T08:29:27.168Z,23.22
2017-03-15T08:30:27.774Z,24.15
2017-03-15T08:31:30.849Z,25.05
2017-03-15T08:32:32.804Z,25.65
2017-03-15T08:33:33.339Z,25.72
2017-03-15T08:34:34.647Z,25.55
2017-03-15T08:35:36.817Z,24.48
2017-03-15T08:36:39.641Z,24.10
2017-03-15T08:37:40.601Z,23.58
2017-03-15T08:38:42.068Z,22.38
2017-03-15T08:39:44.456Z,24.83
2017-03-15T08:40:45.257Z,26.65
2017-03-15T08:41:45.819Z,25.62
2017-03-15T08:42:48.048Z,22.65
2017-03-15T08:43:50.092Z,25.47
2017-03-15T08:44:51.420Z,22.98
2017-03-15T08:45:52.151Z,25.05
2017-03-15T08:46:51.719Z,25.47
2017-03-15T08:47:52.772Z,24.50
2017-03-15T08:48:56.690Z,25.57
2017-03-15T08:49:59.345Z,26.27
2017-03-15T08:51:01.617Z,24.67
2017-03-15T08:52:01.752Z,25.20
2017-03-15T08:53:02.632Z,23.00
2017-03-15T08:54:07.216Z,25.50
2017-03-15T08:55:09.942Z,26.00
2017-03-15T08:56:13.052Z,25.20
2017-03-15T08:57:13.168Z,26.22
2017-03-15T08:58:13.030Z,27.40
2017-03-15T08:59:13.910Z,26.62
2017-03-15T09:00:14.134Z,24.28
2017-03-15T09:01:14.225Z,26.00
2017-03-15T09:02:16.027Z,27.17
2017-03-15T09:03:19.080Z,26.65
2017-03-15T09:04:20.663Z,25.65
2017-03-15T09:05:21.494Z,25.68
2017-03-15T09:06:23.436Z,25.93
2017-03-15T09:07:22.924Z,27.10
2017-03-15T09:08:22.988Z,28.70
2017-03-15T09:09:23.929Z,28.97
2017-03-15T09:10:24.430Z,28.77
2017-03-15T09:11:25.307Z,27.10
2017-03-15T09:12:26.487Z,26.65
2017-03-15T09:13:30.556Z,28.20
2017-03-15T09:14:31.595Z,29.67
2017-03-15T09:15:32.608Z,28.50
2017-03-15T09:16:34.835Z,25.13
2017-03-15T09:17:35.667Z,26.25
2017-03-15T09:18:35.355Z,26.00
2017-03-15T09:19:37.041Z,26.82
2017-03-15T09:20:36.467Z,26.32
2017-03-15T09:21:38.807Z,28.13
2017-03-15T09:22:39.686Z,25.87
2017-03-15T09:23:39.675Z,24.93
2017-03-15T09:24:41.448Z,26.90
2017-03-15T09:25:42.195Z,25.02
2017-03-15T09:26:42.408Z,27.27
2017-03-15T09:27:42.812Z,29.15
2017-03-15T09:28:44.681Z,26.15
2017-03-15T09:29:45.836Z,28.02
2017-03-15T09:30:48.596Z,28.58
2017-03-15T09:31:49.524Z,27.85
2017-03-15T09:32:49.865Z,27.68
2017-03-15T09:33:51.878Z,27.33
2017-03-15T09:34:53.646Z,28.02
2017-03-15T09:35:55.058Z,28.73
2017-03-15T09:36:54.651Z,29.55
2017-03-15T09:37:54.806Z,29.03
2017-03-15T09:38:57.011Z,26.23
2017-03-15T09:40:00.445Z,26.97
2017-03-15T09:41:01.084Z,26.70
2017-03-15T09:42:01.010Z,28.23
2017-03-15T09:43:01.307Z,31.35
2017-03-15T09:44:04.876Z,33.05
2017-03-15T09:45:08.052Z,29.43
2017-03-15T09:46:10.241Z,30.22
2017-03-15T09:47:14.994Z,31.90
2017-03-15T09:48:15.061Z,30.62
2017-03-15T09:49:15.924Z,30.67
2017-03-15T09:50:16.435Z,28.73
2017-03-15T09:51:18.335Z,31.30
2017-03-15T09:52:19.323Z,29.77
2017-03-15T09:53:19.490Z,32.28
2017-03-15T09:54:23.288Z,30.73
2017-03-15T09:55:22.771Z,30.72
2017-03-15T09:56:23.192Z,31.13
2017-03-15T09:57:26.570Z,32.08
2017-03-15T09:58:31.210Z,31.68
2017-03-15T09:59:32.159Z,32.10
2017-03-15T10:00:34.275Z,30.83
2017-03-15T10:01:37.912Z,30.82
2017-03-15T10:02:41.461Z,29.43
2017-03-15T10:03:43.420Z,32.52
2017-03-15T10:04:43.179Z,33.30
2017-03-15T10:05:47.887Z,31.98
2017-03-15T10:06:48.655Z,31.18
2017-03-15T10:07:53.652Z,31.72
2017-03-15T10:08:54.043Z,32.27
2017-03-15T10:09:56.881Z,32.35
2017-03-15T10:10:56.722Z,31.48
2017-03-15T10:11:57.244Z,32.28
2017-03-15T10:12:56.427Z,31.08
2017-03-15T10:13:58.931Z,31.82
2017-03-15T10:15:02.843Z,32.68
2017-03-15T10:16:04.216Z,32.32
2017-03-15T10:17:06.315Z,30.65
2017-03-15T10:18:06.947Z,32.37
2017-03-15T10:19:10.191Z,32.18
2017-03-15T10:20:12.925Z,31.67
2017-03-15T10:21:13.752Z,33.57
2017-03-15T10:22:16.115Z,33.40
2017-03-15T10:23:21.520Z,30.53
2017-03-15T10:24:22.314Z,31.93
2017-03-15T10:25:22.547Z,30.50
2017-03-15T10:26:24.236Z,30.20
2017-03-15T10:27:24.647Z,32.32
2017-03-15T10:28:26.127Z,33.75
2017-03-15T10:29:25.240Z,32.05
2017-03-15T10:30:29.788Z,32.82
2017-03-15T10:31:32.071Z,32.85
2017-03-15T10:32:34.192Z,28.83
2017-03-15T10:33:33.843Z,32.78
2017-03-15T10:34:36.348Z,30.47
2017-03-15T10:35:38.680Z,31.55
2017-03-15T10:36:41.532Z,29.42
2017-03-15T10:37:40.888Z,29.88
2017-03-15T10:38:41.828Z,31.70
2017-03-15T10:39:41.892Z,31.25
2017-03-15T10:40:42.796Z,31.93
2017-03-15T10:41:42.119Z,30.30
2017-03-15T10:42:42.237Z,32.45
2017-03-15T10:43:45.067Z,31.28
2017-03-15T10:44:48.988Z,29.05
2017-03-15T10:45:49.701Z,31.52
2017-03-15T10:46:50.288Z,33.42
2017-03-15T10:47:49.571Z,29.98
2017-03-15T10:48:52.558Z,30.52
2017-03-15T10:49:56.274Z,33.30
2017-03-15T10:50:57.807Z,31.98
2017-03-15T10:52:02.204Z,31.83
2017-03-15T10:53:03.487Z,29.15
2017-03-15T10:54:03.331Z,29.78
2017-03-15T10:55:04.656Z,31.12
2017-03-15T10:56:04.055Z,32.67
2017-03-15T10:57:03.567Z,30.33
2017-03-15T10:58:05.892Z,31.30
2017-03-15T10:59:10.439Z,31.30
2017-03-15T11:00:09.792Z,31.88
2017-03-15T11:01:10.403Z,33.13
2017-03-15T11:02:11.588Z,32.18
2017-03-15T11:03:11.556Z,30.25
2017-03-15T11:04:12.200Z,30.73
2017-03-15T11:05:12.917Z,32.15
2017-03-15T11:06:15.404Z,28.10
2017-03-15T11:07:15.535Z,31.38
2017-03-15T11:08:15.155Z,31.20
2017-03-15T11:09:17.771Z,27.73
2017-03-15T11:10:18.976Z,26.43
2017-03-15T11:11:21.280Z,27.33
2017-03-15T11:12:24.552Z,26.73
2017-03-15T11:13:27.455Z,27.05
2017-03-15T11:14:31.448Z,25.90
2017-03-15T11:15:32.274Z,24.65
2017-03-15T11:16:33.929Z,24.87
2017-03-15T11:17:35.451Z,26.47
2017-03-15T11:18:35.257Z,27.17
2017-03-15T11:19:35.259Z,27.68
2017-03-15T11:20:35.608Z,23.22
2017-03-15T11:21:36.195Z,24.63
2017-03-15T11:22:40.368Z,24.55
2017-03-15T11:23:42.240Z,24.47
2017-03-15T11:24:43.999Z,24.88
2017-03-15T11:25:45.758Z,24.58
2017-03-15T11:26:49.938Z,26.00
2017-03-15T11:27:52.940Z,25.80
2017-03-15T11:28:55.071Z,26.13
2017-03-15T11:29:57.573Z,26.25
2017-03-15T11:30:57.550Z,27.00
2017-03-15T11:31:58.807Z,25.93
2017-03-15T11:32:58.804Z,30.95
2017-03-15T11:33:58.939Z,28.40
2017-03-15T11:35:03.084Z,27.03
2017-03-15T11:36:03.733Z,27.35
2017-03-15T11:37:03.709Z,25.43
2017-03-15T11:38:06.019Z,25.32
2017-03-15T11:39:06.740Z,24.68
2017-03-15T11:40:08.900Z,27.68
2017-03-15T11:41:10.119Z,27.37
2017-03-15T11:42:11.060Z,28.97
2017-03-15T11:43:16.719Z,26.47
2017-03-15T11:44:18.540Z,27.65
2017-03-15T11:45:19.622Z,29.28
2017-03-15T11:46:20.147Z,26.97
2017-03-15T11:47:25.027Z,27.72
2017-03-15T11:48:26.299Z,26.50
2017-03-15T11:49:27.294Z,25.68
2017-03-15T11:50:31.079Z,25.35
2017-03-15T11:51:33.807Z,26.23
2017-03-15T11:52:33.850Z,27.47
2017-03-15T11:53:36.131Z,27.95
2017-03-15T11:54:36.768Z,28.73
2017-03-15T11:55:38.557Z,25.90
2017-03-15T11:56:41.711Z,24.35
2017-03-15T11:57:43.082Z,23.12
2017-03-15T11:58:47.028Z,23.50
2017-03-15T11:59:47.264Z,24.67
2017-03-15T12:00:47.228Z,22.20
2017-03-15T12:01:50.864Z,21.78
2017-03-15T12:02:53.851Z,23.38
2017-03-15T12:03:57.516Z,24.08
2017-03-15T12:05:00.269Z,23.32
2017-03-15T12:06:02.232Z,22.20
2017-03-15T12:07:04.399Z,24.02
2017-03-15T12:08:04.976Z,22.82
2017-03-15T12:09:09.720Z,25.45
2017-03-15T12:10:09.222Z,27.35
2017-03-15T12:11:11.327Z,24.98
2017-03-15T12:12:14.767Z,27.80
2017-03-15T12:13:19.895Z,25.57
2017-03-15T12:14:20.309Z,25.90
2017-03-15T12:15:21.970Z,22.75
2017-03-15T12:16:23.524Z,23.82
2017-03-15T12:17:27.249Z,21.93
2017-03-15T12:18:31.151Z,21.18
2017-03-15T12:19:30.739Z,20.48
2017-03-15T12:20:32.467Z,22.57
2017-03-15T12:21:35.444Z,20.97
2017-03-15T12:22:37.061Z,21.33
2017-03-15T12:23:39.124Z,23.42
2017-03-15T12:24:40.275Z,22.55
2017-03-15T12:25:43.939Z,23.15
2017-03-15T12:26:44.466Z,20.73
2017-03-15T12:27:49.083Z,21.97
2017-03-15T12:28:49.611Z,21.23
2017-03-15T12:29:52.142Z,19.85
2017-03-15T12:30:55.816Z,21.62
2017-03-15T12:31:55.254Z,19.70
2017-03-15T12:32:56.299Z,19.88
2017-03-15T12:33:57.623Z,19.93
2017-03-15T12:34:58.231Z,21.83
2017-03-15T12:35:58.867Z,20.92
2017-03-15T12:37:01.543Z,19.90
2017-03-15T12:38:02.131Z,19.85
2017-03-15T12:39:05.659Z,22.03
2017-03-15T12:40:06.498Z,19.28
2017-03-15T12:41:07.819Z,19.72
2017-03-15T12:42:08.843Z,20.62
2017-03-15T12:43:09.370Z,19.68
2017-03-15T12:44:09.359Z,19.70
2017-03-15T12:45:10.611Z,17.70
2017-03-15T12:46:11.550Z,18.80
2017-03-15T12:47:11.915Z,18.12
2017-03-15T12:48:13.394Z,17.83
2017-03-15T12:49:14.331Z,20.35
2017-03-15T12:50:16.631Z,21.02
2017-03-15T12:51:18.683Z,22.18
2017-03-15T12:52:18.419Z,23.15
2017-03-15T12:53:20.195Z,22.45
2017-03-15T12:54:24.548Z,23.58
2017-03-15T12:55:27.899Z,21.87
2017-03-15T12:56:28.400Z,21.33
2017-03-15T12:57:29.355Z,23.07
2017-03-15T12:58:29.293Z,22.03
2017-03-15T12:59:29.511Z,22.87
2017-03-15T13:00:29.755Z,20.57
2017-03-15T13:01:30.279Z,21.37
2017-03-15T13:02:30.947Z,21.92
2017-03-15T13:03:33.763Z,19.67
2017-03-15T13:04:34.358Z,22.75
2017-03-15T13:05:34.232Z,20.83